sensor_id;sensor_type;location;lat;lon;timestamp;temperature;humidity
44513;DHT22;30219;50.588;9.504;2023-03-23T00:02:22;13.30;99.90
44513;DHT22;30219;50.588;9.504;2023-03-23T00:04:48;13.30;99.90
44513;DHT22;30219;50.588;9.504;2023-03-23T00:07:14;13.40;99.90
44513;DHT22;30219;50.588;9.504;2023-03-23T00:09:50;13.30;99.90
44513;DHT22;30219;50.588;9.504;2023-03-23T00:12:26;13.40;99.90
44513;DHT22;30219;50.588;9.504;2023-03-23T00:14:59;13.40;99.90
44513;DHT22;30219;50.588;9.504;2023-03-23T00:17:26;13.30;99.90
44513;DHT22;30219;50.588;9.504;2023-03-23T00:19:51;13.20;99.90
44513;DHT22;30219;50.588;9.504;2023-03-23T00:22:17;13.30;99.90
44513;DHT22;30219;50.588;9.504;2023-03-23T00:24:44;13.40;99.90
44513;DHT22;30219;50.588;9.504;2023-03-23T00:27:10;13.30;99.90
44513;DHT22;30219;50.588;9.504;2023-03-23T00:29:38;13.30;99.90
44513;DHT22;30219;50.588;9.504;2023-03-23T00:32:03;13.30;99.90
44513;DHT22;30219;50.588;9.504;2023-03-23T00:34:29;13.30;99.90
44513;DHT22;30219;50.588;9.504;2023-03-23T00:36:57;13.30;99.90
44513;DHT22;30219;50.588;9.504;2023-03-23T00:39:24;13.40;99.90
44513;DHT22;30219;50.588;9.504;2023-03-23T00:41:50;13.40;99.90
44513;DHT22;30219;50.588;9.504;2023-03-23T00:44:16;13.30;99.90
44513;DHT22;30219;50.588;9.504;2023-03-23T00:46:45;13.30;99.90
44513;DHT22;30219;50.588;9.504;2023-03-23T00:49:12;13.30;99.90
44513;DHT22;30219;50.588;9.504;2023-03-23T00:51:38;13.40;99.90
44513;DHT22;30219;50.588;9.504;2023-03-23T00:54:04;13.30;99.90
44513;DHT22;30219;50.588;9.504;2023-03-23T00:56:29;13.20;99.90
44513;DHT22;30219;50.588;9.504;2023-03-23T00:58:55;13.20;99.90
44513;DHT22;30219;50.588;9.504;2023-03-23T01:01:20;13.20;99.90
44513;DHT22;30219;50.588;9.504;2023-03-23T01:03:46;13.00;99.90
44513;DHT22;30219;50.588;9.504;2023-03-23T01:06:11;13.00;99.90
44513;DHT22;30219;50.588;9.504;2023-03-23T01:08:38;12.90;99.90
44513;DHT22;30219;50.588;9.504;2023-03-23T01:11:05;12.90;99.90
44513;DHT22;30219;50.588;9.504;2023-03-23T01:13:31;12.90;99.90
44513;DHT22;30219;50.588;9.504;2023-03-23T01:15:57;12.90;99.90
44513;DHT22;30219;50.588;9.504;2023-03-23T01:18:22;12.90;99.90
44513;DHT22;30219;50.588;9.504;2023-03-23T01:20:48;12.90;99.90
44513;DHT22;30219;50.588;9.504;2023-03-23T01:23:13;12.90;99.90
44513;DHT22;30219;50.588;9.504;2023-03-23T01:25:39;12.90;99.90
44513;DHT22;30219;50.588;9.504;2023-03-23T01:28:04;12.90;99.90
44513;DHT22;30219;50.588;9.504;2023-03-23T01:30:30;12.80;99.90
44513;DHT22;30219;50.588;9.504;2023-03-23T01:32:56;12.90;99.90
44513;DHT22;30219;50.588;9.504;2023-03-23T01:35:21;12.90;99.90
44513;DHT22;30219;50.588;9.504;2023-03-23T01:37:47;12.90;99.90
44513;DHT22;30219;50.588;9.504;2023-03-23T01:40:13;12.90;99.90
44513;DHT22;30219;50.588;9.504;2023-03-23T01:42:39;12.80;99.90
44513;DHT22;30219;50.588;9.504;2023-03-23T01:47:36;12.90;99.90
44513;DHT22;30219;50.588;9.504;2023-03-23T01:50:01;12.90;99.90
44513;DHT22;30219;50.588;9.504;2023-03-23T01:52:27;13.00;99.90
44513;DHT22;30219;50.588;9.504;2023-03-23T01:54:54;12.90;99.90
44513;DHT22;30219;50.588;9.504;2023-03-23T01:57:21;12.90;99.90
44513;DHT22;30219;50.588;9.504;2023-03-23T01:59:49;12.90;99.90
44513;DHT22;30219;50.588;9.504;2023-03-23T02:02:17;12.90;99.90
44513;DHT22;30219;50.588;9.504;2023-03-23T02:04:42;12.80;99.90
44513;DHT22;30219;50.588;9.504;2023-03-23T02:07:08;12.80;99.90
44513;DHT22;30219;50.588;9.504;2023-03-23T02:09:34;12.80;99.90
44513;DHT22;30219;50.588;9.504;2023-03-23T02:12:00;12.80;99.90
44513;DHT22;30219;50.588;9.504;2023-03-23T02:14:26;12.80;99.90
44513;DHT22;30219;50.588;9.504;2023-03-23T02:16:58;12.70;99.90
44513;DHT22;30219;50.588;9.504;2023-03-23T02:22:09;12.70;99.90
44513;DHT22;30219;50.588;9.504;2023-03-23T02:27:09;12.60;99.90
44513;DHT22;30219;50.588;9.504;2023-03-23T02:29:47;12.60;99.90
44513;DHT22;30219;50.588;9.504;2023-03-23T02:34:41;12.60;99.90
44513;DHT22;30219;50.588;9.504;2023-03-23T02:37:11;12.60;99.90
44513;DHT22;30219;50.588;9.504;2023-03-23T02:42:08;12.50;99.90
44513;DHT22;30219;50.588;9.504;2023-03-23T02:44:34;12.50;99.90
44513;DHT22;30219;50.588;9.504;2023-03-23T02:47:02;12.50;99.90
44513;DHT22;30219;50.588;9.504;2023-03-23T02:49:28;12.50;99.90
44513;DHT22;30219;50.588;9.504;2023-03-23T02:51:56;12.50;99.90
44513;DHT22;30219;50.588;9.504;2023-03-23T02:54:23;12.50;99.90
44513;DHT22;30219;50.588;9.504;2023-03-23T02:56:51;12.50;99.90
44513;DHT22;30219;50.588;9.504;2023-03-23T02:59:17;12.60;99.90
44513;DHT22;30219;50.588;9.504;2023-03-23T03:04:11;12.60;99.90
44513;DHT22;30219;50.588;9.504;2023-03-23T03:06:41;12.60;99.90
44513;DHT22;30219;50.588;9.504;2023-03-23T03:09:13;12.60;99.90
44513;DHT22;30219;50.588;9.504;2023-03-23T03:11:41;12.50;99.90
44513;DHT22;30219;50.588;9.504;2023-03-23T03:14:12;12.60;99.90
44513;DHT22;30219;50.588;9.504;2023-03-23T03:17:02;12.50;99.90
44513;DHT22;30219;50.588;9.504;2023-03-23T03:19:29;12.50;99.90
44513;DHT22;30219;50.588;9.504;2023-03-23T03:21:56;12.50;99.90
44513;DHT22;30219;50.588;9.504;2023-03-23T03:24:23;12.40;99.90
44513;DHT22;30219;50.588;9.504;2023-03-23T03:26:50;12.40;99.90
44513;DHT22;30219;50.588;9.504;2023-03-23T03:29:17;12.40;99.90
44513;DHT22;30219;50.588;9.504;2023-03-23T03:31:44;12.40;99.90
44513;DHT22;30219;50.588;9.504;2023-03-23T03:34:13;12.30;99.90
44513;DHT22;30219;50.588;9.504;2023-03-23T03:36:43;12.30;99.90
44513;DHT22;30219;50.588;9.504;2023-03-23T03:39:10;12.20;99.90
44513;DHT22;30219;50.588;9.504;2023-03-23T03:41:38;12.20;99.90
44513;DHT22;30219;50.588;9.504;2023-03-23T03:44:04;12.20;99.90
44513;DHT22;30219;50.588;9.504;2023-03-23T03:46:30;12.10;99.90
44513;DHT22;30219;50.588;9.504;2023-03-23T03:48:57;12.10;99.90
44513;DHT22;30219;50.588;9.504;2023-03-23T03:51:23;12.00;99.90
44513;DHT22;30219;50.588;9.504;2023-03-23T03:53:48;12.00;99.90
44513;DHT22;30219;50.588;9.504;2023-03-23T03:56:14;11.90;99.90
44513;DHT22;30219;50.588;9.504;2023-03-23T03:58:39;11.90;99.90
44513;DHT22;30219;50.588;9.504;2023-03-23T04:01:10;11.80;99.90
44513;DHT22;30219;50.588;9.504;2023-03-23T04:03:36;11.70;99.90
44513;DHT22;30219;50.588;9.504;2023-03-23T04:06:02;11.60;99.90
44513;DHT22;30219;50.588;9.504;2023-03-23T04:08:27;11.50;99.90
44513;DHT22;30219;50.588;9.504;2023-03-23T04:10:53;11.40;99.90
44513;DHT22;30219;50.588;9.504;2023-03-23T04:13:19;11.30;99.90
44513;DHT22;30219;50.588;9.504;2023-03-23T04:15:45;11.20;99.90
44513;DHT22;30219;50.588;9.504;2023-03-23T04:18:11;11.10;99.90
44513;DHT22;30219;50.588;9.504;2023-03-23T04:20:37;11.10;99.90
44513;DHT22;30219;50.588;9.504;2023-03-23T04:23:02;11.00;99.90
44513;DHT22;30219;50.588;9.504;2023-03-23T04:25:28;10.90;99.90
44513;DHT22;30219;50.588;9.504;2023-03-23T04:27:53;10.90;99.90
44513;DHT22;30219;50.588;9.504;2023-03-23T04:30:24;10.90;99.90
44513;DHT22;30219;50.588;9.504;2023-03-23T04:32:50;10.90;99.90
44513;DHT22;30219;50.588;9.504;2023-03-23T04:35:18;10.80;99.90
44513;DHT22;30219;50.588;9.504;2023-03-23T04:37:44;10.80;99.90
44513;DHT22;30219;50.588;9.504;2023-03-23T04:40:10;10.80;99.90
44513;DHT22;30219;50.588;9.504;2023-03-23T04:42:38;10.80;99.90
44513;DHT22;30219;50.588;9.504;2023-03-23T04:45:05;10.70;99.90
44513;DHT22;30219;50.588;9.504;2023-03-23T04:47:34;10.70;99.90
44513;DHT22;30219;50.588;9.504;2023-03-23T04:50:04;10.60;99.90
44513;DHT22;30219;50.588;9.504;2023-03-23T04:52:31;10.50;99.90
44513;DHT22;30219;50.588;9.504;2023-03-23T04:54:57;10.50;99.90
44513;DHT22;30219;50.588;9.504;2023-03-23T04:57:23;10.50;99.90
44513;DHT22;30219;50.588;9.504;2023-03-23T04:59:52;10.40;99.90
44513;DHT22;30219;50.588;9.504;2023-03-23T05:02:18;10.40;99.90
44513;DHT22;30219;50.588;9.504;2023-03-23T05:04:43;10.40;99.90
44513;DHT22;30219;50.588;9.504;2023-03-23T05:07:10;10.40;99.90
44513;DHT22;30219;50.588;9.504;2023-03-23T05:09:35;10.40;99.90
44513;DHT22;30219;50.588;9.504;2023-03-23T05:12:08;10.40;99.90
44513;DHT22;30219;50.588;9.504;2023-03-23T05:14:33;10.40;99.90
44513;DHT22;30219;50.588;9.504;2023-03-23T05:16:59;10.40;99.90
44513;DHT22;30219;50.588;9.504;2023-03-23T05:19:25;10.40;99.90
44513;DHT22;30219;50.588;9.504;2023-03-23T05:21:51;10.50;99.90
44513;DHT22;30219;50.588;9.504;2023-03-23T05:24:16;10.50;99.90
44513;DHT22;30219;50.588;9.504;2023-03-23T05:26:42;10.50;99.90
44513;DHT22;30219;50.588;9.504;2023-03-23T05:29:09;10.60;99.90
44513;DHT22;30219;50.588;9.504;2023-03-23T05:31:36;10.50;99.90
44513;DHT22;30219;50.588;9.504;2023-03-23T05:34:02;10.50;99.90
44513;DHT22;30219;50.588;9.504;2023-03-23T05:36:28;10.50;99.90
44513;DHT22;30219;50.588;9.504;2023-03-23T05:38:54;10.50;99.90
44513;DHT22;30219;50.588;9.504;2023-03-23T05:41:20;10.60;99.90
44513;DHT22;30219;50.588;9.504;2023-03-23T05:43:46;10.50;99.90
44513;DHT22;30219;50.588;9.504;2023-03-23T05:46:11;10.50;99.90
44513;DHT22;30219;50.588;9.504;2023-03-23T05:48:37;10.50;99.90
44513;DHT22;30219;50.588;9.504;2023-03-23T05:51:03;10.40;99.90
44513;DHT22;30219;50.588;9.504;2023-03-23T05:53:29;10.50;99.90
44513;DHT22;30219;50.588;9.504;2023-03-23T05:55:59;10.50;99.90
44513;DHT22;30219;50.588;9.504;2023-03-23T05:58:25;10.50;99.90
44513;DHT22;30219;50.588;9.504;2023-03-23T06:00:51;10.50;99.90
44513;DHT22;30219;50.588;9.504;2023-03-23T06:03:16;10.50;99.90
44513;DHT22;30219;50.588;9.504;2023-03-23T06:05:45;10.60;99.90
44513;DHT22;30219;50.588;9.504;2023-03-23T06:08:10;10.60;99.90
44513;DHT22;30219;50.588;9.504;2023-03-23T06:10:36;10.60;99.90
44513;DHT22;30219;50.588;9.504;2023-03-23T06:13:02;10.60;99.90
44513;DHT22;30219;50.588;9.504;2023-03-23T06:15:28;10.70;99.90
44513;DHT22;30219;50.588;9.504;2023-03-23T06:18:00;10.70;99.90
44513;DHT22;30219;50.588;9.504;2023-03-23T06:20:26;10.70;99.90
44513;DHT22;30219;50.588;9.504;2023-03-23T06:22:51;10.70;99.90
44513;DHT22;30219;50.588;9.504;2023-03-23T06:25:17;10.70;99.90
44513;DHT22;30219;50.588;9.504;2023-03-23T06:27:43;10.60;99.90
44513;DHT22;30219;50.588;9.504;2023-03-23T06:30:09;10.70;99.90
44513;DHT22;30219;50.588;9.504;2023-03-23T06:32:35;10.70;99.90
44513;DHT22;30219;50.588;9.504;2023-03-23T06:35:00;10.70;99.90
44513;DHT22;30219;50.588;9.504;2023-03-23T06:37:26;10.70;99.90
44513;DHT22;30219;50.588;9.504;2023-03-23T06:39:52;10.70;99.90
44513;DHT22;30219;50.588;9.504;2023-03-23T06:42:17;10.80;99.90
44513;DHT22;30219;50.588;9.504;2023-03-23T06:44:43;10.80;99.90
44513;DHT22;30219;50.588;9.504;2023-03-23T06:47:09;10.90;99.90
44513;DHT22;30219;50.588;9.504;2023-03-23T06:49:34;10.80;99.90
44513;DHT22;30219;50.588;9.504;2023-03-23T06:52:00;10.80;99.90
44513;DHT22;30219;50.588;9.504;2023-03-23T06:54:27;10.80;99.90
44513;DHT22;30219;50.588;9.504;2023-03-23T06:56:52;10.90;99.90
44513;DHT22;30219;50.588;9.504;2023-03-23T06:59:18;10.90;99.90
44513;DHT22;30219;50.588;9.504;2023-03-23T07:01:44;10.90;99.90
44513;DHT22;30219;50.588;9.504;2023-03-23T07:04:11;10.90;99.90
44513;DHT22;30219;50.588;9.504;2023-03-23T07:06:37;10.90;99.90
44513;DHT22;30219;50.588;9.504;2023-03-23T07:09:03;10.90;99.90
44513;DHT22;30219;50.588;9.504;2023-03-23T07:11:28;11.00;99.90
44513;DHT22;30219;50.588;9.504;2023-03-23T07:13:54;11.00;99.90
44513;DHT22;30219;50.588;9.504;2023-03-23T07:16:19;11.00;99.90
44513;DHT22;30219;50.588;9.504;2023-03-23T07:18:45;11.20;99.90
44513;DHT22;30219;50.588;9.504;2023-03-23T07:21:10;11.20;99.90
44513;DHT22;30219;50.588;9.504;2023-03-23T07:23:36;11.30;99.90
44513;DHT22;30219;50.588;9.504;2023-03-23T07:26:02;11.20;99.90
44513;DHT22;30219;50.588;9.504;2023-03-23T07:28:28;11.30;99.90
44513;DHT22;30219;50.588;9.504;2023-03-23T07:30:54;11.20;99.90
44513;DHT22;30219;50.588;9.504;2023-03-23T07:33:19;11.20;99.90
44513;DHT22;30219;50.588;9.504;2023-03-23T07:35:45;11.20;99.90
44513;DHT22;30219;50.588;9.504;2023-03-23T07:40:38;11.30;99.90
44513;DHT22;30219;50.588;9.504;2023-03-23T07:43:03;11.30;99.90
44513;DHT22;30219;50.588;9.504;2023-03-23T07:45:30;11.30;99.90
44513;DHT22;30219;50.588;9.504;2023-03-23T07:47:56;11.30;99.90
44513;DHT22;30219;50.588;9.504;2023-03-23T07:50:21;11.20;99.90
44513;DHT22;30219;50.588;9.504;2023-03-23T07:52:49;11.30;99.90
44513;DHT22;30219;50.588;9.504;2023-03-23T07:55:15;11.20;99.90
44513;DHT22;30219;50.588;9.504;2023-03-23T07:57:43;11.10;99.90
44513;DHT22;30219;50.588;9.504;2023-03-23T08:00:09;11.10;99.90
44513;DHT22;30219;50.588;9.504;2023-03-23T08:02:37;11.10;99.90
44513;DHT22;30219;50.588;9.504;2023-03-23T08:05:03;11.10;99.90
44513;DHT22;30219;50.588;9.504;2023-03-23T08:07:28;11.10;99.90
44513;DHT22;30219;50.588;9.504;2023-03-23T08:09:54;11.00;99.90
44513;DHT22;30219;50.588;9.504;2023-03-23T08:12:19;11.00;99.90
44513;DHT22;30219;50.588;9.504;2023-03-23T08:14:46;11.00;99.90
44513;DHT22;30219;50.588;9.504;2023-03-23T08:17:13;11.10;99.90
44513;DHT22;30219;50.588;9.504;2023-03-23T08:19:39;11.10;99.90
44513;DHT22;30219;50.588;9.504;2023-03-23T08:22:05;11.10;99.90
44513;DHT22;30219;50.588;9.504;2023-03-23T08:24:31;11.20;99.90
44513;DHT22;30219;50.588;9.504;2023-03-23T08:26:58;11.20;99.90
44513;DHT22;30219;50.588;9.504;2023-03-23T08:29:24;11.20;99.90
44513;DHT22;30219;50.588;9.504;2023-03-23T08:31:49;11.20;99.90
44513;DHT22;30219;50.588;9.504;2023-03-23T08:34:15;11.20;99.90
44513;DHT22;30219;50.588;9.504;2023-03-23T08:36:41;11.20;99.90
44513;DHT22;30219;50.588;9.504;2023-03-23T08:39:09;11.10;99.90
44513;DHT22;30219;50.588;9.504;2023-03-23T08:41:35;11.20;99.90
44513;DHT22;30219;50.588;9.504;2023-03-23T08:44:00;11.20;99.90
44513;DHT22;30219;50.588;9.504;2023-03-23T08:46:26;11.30;99.90
44513;DHT22;30219;50.588;9.504;2023-03-23T08:48:52;11.30;99.90
44513;DHT22;30219;50.588;9.504;2023-03-23T08:51:18;11.30;99.90
44513;DHT22;30219;50.588;9.504;2023-03-23T08:53:44;11.30;99.90
44513;DHT22;30219;50.588;9.504;2023-03-23T08:56:10;11.30;99.90
44513;DHT22;30219;50.588;9.504;2023-03-23T08:58:39;11.30;99.90
44513;DHT22;30219;50.588;9.504;2023-03-23T09:01:05;11.30;99.90
44513;DHT22;30219;50.588;9.504;2023-03-23T09:03:36;11.30;99.90
44513;DHT22;30219;50.588;9.504;2023-03-23T09:06:03;11.40;99.90
44513;DHT22;30219;50.588;9.504;2023-03-23T09:08:29;11.40;99.90
44513;DHT22;30219;50.588;9.504;2023-03-23T09:10:58;11.40;99.90
44513;DHT22;30219;50.588;9.504;2023-03-23T09:13:23;11.40;99.90
44513;DHT22;30219;50.588;9.504;2023-03-23T09:15:49;11.40;99.90
44513;DHT22;30219;50.588;9.504;2023-03-23T09:18:14;11.40;99.90
44513;DHT22;30219;50.588;9.504;2023-03-23T09:20:40;11.40;99.90
44513;DHT22;30219;50.588;9.504;2023-03-23T09:23:07;11.50;99.90
44513;DHT22;30219;50.588;9.504;2023-03-23T09:25:33;11.60;99.90
44513;DHT22;30219;50.588;9.504;2023-03-23T09:27:58;11.60;99.90
44513;DHT22;30219;50.588;9.504;2023-03-23T09:30:25;11.70;99.90
44513;DHT22;30219;50.588;9.504;2023-03-23T09:32:52;11.70;99.90
44513;DHT22;30219;50.588;9.504;2023-03-23T09:35:18;11.80;99.90
44513;DHT22;30219;50.588;9.504;2023-03-23T09:37:47;11.80;99.90
44513;DHT22;30219;50.588;9.504;2023-03-23T09:40:17;11.70;99.90
44513;DHT22;30219;50.588;9.504;2023-03-23T09:42:53;11.80;99.90
44513;DHT22;30219;50.588;9.504;2023-03-23T09:45:25;11.80;99.90
44513;DHT22;30219;50.588;9.504;2023-03-23T09:50:40;11.80;99.90
44513;DHT22;30219;50.588;9.504;2023-03-23T09:53:11;12.00;99.90
44513;DHT22;30219;50.588;9.504;2023-03-23T09:55:38;12.00;99.90
44513;DHT22;30219;50.588;9.504;2023-03-23T10:00:53;12.00;99.90
44513;DHT22;30219;50.588;9.504;2023-03-23T10:03:20;12.00;99.90
44513;DHT22;30219;50.588;9.504;2023-03-23T10:05:47;12.10;99.90
44513;DHT22;30219;50.588;9.504;2023-03-23T10:08:15;12.20;99.90
44513;DHT22;30219;50.588;9.504;2023-03-23T10:10:45;12.20;99.90
44513;DHT22;30219;50.588;9.504;2023-03-23T10:15:42;12.10;99.90
44513;DHT22;30219;50.588;9.504;2023-03-23T10:18:20;12.10;99.90
44513;DHT22;30219;50.588;9.504;2023-03-23T10:20:59;12.10;99.90
44513;DHT22;30219;50.588;9.504;2023-03-23T10:28:50;12.00;99.90
44513;DHT22;30219;50.588;9.504;2023-03-23T10:31:19;12.00;99.90
44513;DHT22;30219;50.588;9.504;2023-03-23T10:33:50;11.90;99.90
44513;DHT22;30219;50.588;9.504;2023-03-23T10:36:27;11.90;99.90
44513;DHT22;30219;50.588;9.504;2023-03-23T10:41:20;11.80;99.90
44513;DHT22;30219;50.588;9.504;2023-03-23T10:43:47;11.90;99.90
44513;DHT22;30219;50.588;9.504;2023-03-23T10:49:02;12.00;99.90
44513;DHT22;30219;50.588;9.504;2023-03-23T10:51:34;11.90;99.90
44513;DHT22;30219;50.588;9.504;2023-03-23T10:54:01;12.00;99.90
44513;DHT22;30219;50.588;9.504;2023-03-23T10:56:29;12.00;99.90
44513;DHT22;30219;50.588;9.504;2023-03-23T10:58:59;12.10;99.90
44513;DHT22;30219;50.588;9.504;2023-03-23T11:01:31;12.10;99.90
44513;DHT22;30219;50.588;9.504;2023-03-23T11:03:57;12.00;99.90
44513;DHT22;30219;50.588;9.504;2023-03-23T11:06:23;12.10;99.90
44513;DHT22;30219;50.588;9.504;2023-03-23T11:09:33;12.10;99.90
44513;DHT22;30219;50.588;9.504;2023-03-23T11:11:40;12.00;99.90
44513;DHT22;30219;50.588;9.504;2023-03-23T11:14:17;12.00;99.90
44513;DHT22;30219;50.588;9.504;2023-03-23T11:16:45;12.00;99.90
44513;DHT22;30219;50.588;9.504;2023-03-23T11:19:14;12.00;99.90
44513;DHT22;30219;50.588;9.504;2023-03-23T11:21:40;12.00;99.90
44513;DHT22;30219;50.588;9.504;2023-03-23T11:24:07;12.20;99.90
44513;DHT22;30219;50.588;9.504;2023-03-23T11:26:33;12.30;99.90
44513;DHT22;30219;50.588;9.504;2023-03-23T11:29:10;12.50;99.90
44513;DHT22;30219;50.588;9.504;2023-03-23T11:31:41;12.80;99.90
44513;DHT22;30219;50.588;9.504;2023-03-23T11:34:15;13.00;99.90
44513;DHT22;30219;50.588;9.504;2023-03-23T11:36:42;13.00;99.90
44513;DHT22;30219;50.588;9.504;2023-03-23T11:39:26;13.10;99.90
44513;DHT22;30219;50.588;9.504;2023-03-23T11:41:52;13.30;99.90
44513;DHT22;30219;50.588;9.504;2023-03-23T11:44:17;13.10;99.90
44513;DHT22;30219;50.588;9.504;2023-03-23T11:49:45;13.30;99.90
44513;DHT22;30219;50.588;9.504;2023-03-23T11:52:21;13.00;99.90
44513;DHT22;30219;50.588;9.504;2023-03-23T11:55:32;13.10;99.90
44513;DHT22;30219;50.588;9.504;2023-03-23T11:57:37;13.30;99.90
44513;DHT22;30219;50.588;9.504;2023-03-23T12:00:16;13.30;99.90
44513;DHT22;30219;50.588;9.504;2023-03-23T12:16:00;13.00;99.90
44513;DHT22;30219;50.588;9.504;2023-03-23T12:26:09;12.80;99.90
44513;DHT22;30219;50.588;9.504;2023-03-23T12:33:45;12.80;99.90
44513;DHT22;30219;50.588;9.504;2023-03-23T12:41:18;12.70;99.90
44513;DHT22;30219;50.588;9.504;2023-03-23T12:43:48;12.60;99.90
44513;DHT22;30219;50.588;9.504;2023-03-23T12:46:29;12.50;99.90
44513;DHT22;30219;50.588;9.504;2023-03-23T12:49:34;12.40;99.90
44513;DHT22;30219;50.588;9.504;2023-03-23T12:52:02;12.40;99.90
44513;DHT22;30219;50.588;9.504;2023-03-23T12:59:36;12.30;99.90
44513;DHT22;30219;50.588;9.504;2023-03-23T13:05:00;12.40;99.90
44513;DHT22;30219;50.588;9.504;2023-03-23T13:07:44;12.40;99.90
44513;DHT22;30219;50.588;9.504;2023-03-23T13:12:44;12.50;99.90
44513;DHT22;30219;50.588;9.504;2023-03-23T13:17:52;12.70;99.90
44513;DHT22;30219;50.588;9.504;2023-03-23T13:20:29;12.80;99.90
44513;DHT22;30219;50.588;9.504;2023-03-23T13:23:02;12.90;99.90
44513;DHT22;30219;50.588;9.504;2023-03-23T13:28:21;12.90;99.90
44513;DHT22;30219;50.588;9.504;2023-03-23T13:31:21;12.80;99.90
44513;DHT22;30219;50.588;9.504;2023-03-23T13:33:43;12.90;99.90
44513;DHT22;30219;50.588;9.504;2023-03-23T13:36:11;13.00;99.90
44513;DHT22;30219;50.588;9.504;2023-03-23T13:38:37;13.20;99.90
44513;DHT22;30219;50.588;9.504;2023-03-23T13:41:07;13.20;99.90
44513;DHT22;30219;50.588;9.504;2023-03-23T13:43:35;13.30;99.90
44513;DHT22;30219;50.588;9.504;2023-03-23T13:46:09;13.40;99.90
44513;DHT22;30219;50.588;9.504;2023-03-23T13:48:43;13.20;99.90
44513;DHT22;30219;50.588;9.504;2023-03-23T13:51:23;13.20;99.90
44513;DHT22;30219;50.588;9.504;2023-03-23T13:53:49;13.10;99.90
44513;DHT22;30219;50.588;9.504;2023-03-23T13:59:28;13.00;99.90
44513;DHT22;30219;50.588;9.504;2023-03-23T14:01:35;13.10;99.90
44513;DHT22;30219;50.588;9.504;2023-03-23T14:04:03;13.20;99.90
44513;DHT22;30219;50.588;9.504;2023-03-23T14:06:33;13.20;99.90
44513;DHT22;30219;50.588;9.504;2023-03-23T14:09:03;13.20;99.90
44513;DHT22;30219;50.588;9.504;2023-03-23T14:11:30;13.30;99.90
44513;DHT22;30219;50.588;9.504;2023-03-23T14:13:58;13.40;99.90
44513;DHT22;30219;50.588;9.504;2023-03-23T14:16:36;13.40;99.90
44513;DHT22;30219;50.588;9.504;2023-03-23T14:19:03;13.40;99.90
44513;DHT22;30219;50.588;9.504;2023-03-23T14:21:33;13.40;99.90
44513;DHT22;30219;50.588;9.504;2023-03-23T14:24:03;13.50;99.90
44513;DHT22;30219;50.588;9.504;2023-03-23T14:26:29;13.50;99.90
44513;DHT22;30219;50.588;9.504;2023-03-23T14:28:54;13.50;99.90
44513;DHT22;30219;50.588;9.504;2023-03-23T14:31:21;13.40;99.90
44513;DHT22;30219;50.588;9.504;2023-03-23T14:33:47;13.30;99.90
44513;DHT22;30219;50.588;9.504;2023-03-23T14:36:14;13.40;99.90
44513;DHT22;30219;50.588;9.504;2023-03-23T14:38:39;13.40;99.90
44513;DHT22;30219;50.588;9.504;2023-03-23T14:41:05;13.50;99.90
44513;DHT22;30219;50.588;9.504;2023-03-23T14:43:32;13.50;99.90
44513;DHT22;30219;50.588;9.504;2023-03-23T14:46:00;13.60;99.90
44513;DHT22;30219;50.588;9.504;2023-03-23T14:48:26;13.60;99.90
44513;DHT22;30219;50.588;9.504;2023-03-23T14:51:02;13.60;99.90
44513;DHT22;30219;50.588;9.504;2023-03-23T14:53:37;13.60;99.90
44513;DHT22;30219;50.588;9.504;2023-03-23T14:56:21;13.60;99.90
44513;DHT22;30219;50.588;9.504;2023-03-23T14:58:49;13.40;99.90
44513;DHT22;30219;50.588;9.504;2023-03-23T15:01:17;13.50;99.90
44513;DHT22;30219;50.588;9.504;2023-03-23T15:03:45;13.50;99.90
44513;DHT22;30219;50.588;9.504;2023-03-23T15:06:13;13.40;99.90
44513;DHT22;30219;50.588;9.504;2023-03-23T15:08:40;13.50;99.90
44513;DHT22;30219;50.588;9.504;2023-03-23T15:11:07;13.60;99.90
44513;DHT22;30219;50.588;9.504;2023-03-23T15:13:34;13.70;99.90
44513;DHT22;30219;50.588;9.504;2023-03-23T15:16:07;13.70;99.90
44513;DHT22;30219;50.588;9.504;2023-03-23T15:18:37;13.70;99.90
44513;DHT22;30219;50.588;9.504;2023-03-23T15:21:26;13.70;99.90
44513;DHT22;30219;50.588;9.504;2023-03-23T15:23:50;13.70;99.90
44513;DHT22;30219;50.588;9.504;2023-03-23T15:27:02;13.70;99.90
44513;DHT22;30219;50.588;9.504;2023-03-23T15:29:12;13.70;99.90
44513;DHT22;30219;50.588;9.504;2023-03-23T15:31:40;13.70;99.90
44513;DHT22;30219;50.588;9.504;2023-03-23T15:34:05;13.60;99.90
44513;DHT22;30219;50.588;9.504;2023-03-23T15:36:34;13.60;99.90
44513;DHT22;30219;50.588;9.504;2023-03-23T15:39:00;13.70;99.90
44513;DHT22;30219;50.588;9.504;2023-03-23T15:41:27;13.70;99.90
44513;DHT22;30219;50.588;9.504;2023-03-23T15:43:54;13.70;99.90
44513;DHT22;30219;50.588;9.504;2023-03-23T15:46:24;13.70;99.90
44513;DHT22;30219;50.588;9.504;2023-03-23T15:49:04;13.60;99.90
44513;DHT22;30219;50.588;9.504;2023-03-23T15:51:31;13.60;99.90
44513;DHT22;30219;50.588;9.504;2023-03-23T15:53:58;13.70;99.90
44513;DHT22;30219;50.588;9.504;2023-03-23T15:56:24;13.60;99.90
44513;DHT22;30219;50.588;9.504;2023-03-23T15:58:50;13.70;99.90
44513;DHT22;30219;50.588;9.504;2023-03-23T16:03:48;13.60;99.90
44513;DHT22;30219;50.588;9.504;2023-03-23T16:06:15;13.60;99.90
44513;DHT22;30219;50.588;9.504;2023-03-23T16:08:42;13.60;99.90
44513;DHT22;30219;50.588;9.504;2023-03-23T16:11:11;13.50;99.90
44513;DHT22;30219;50.588;9.504;2023-03-23T16:13:37;13.60;99.90
44513;DHT22;30219;50.588;9.504;2023-03-23T16:16:03;13.60;99.90
44513;DHT22;30219;50.588;9.504;2023-03-23T16:18:29;13.50;99.90
44513;DHT22;30219;50.588;9.504;2023-03-23T16:20:55;13.60;99.90
44513;DHT22;30219;50.588;9.504;2023-03-23T16:23:21;13.50;99.90
44513;DHT22;30219;50.588;9.504;2023-03-23T16:25:47;13.60;99.90
44513;DHT22;30219;50.588;9.504;2023-03-23T16:28:13;13.50;99.90
44513;DHT22;30219;50.588;9.504;2023-03-23T16:30:39;13.50;99.90
44513;DHT22;30219;50.588;9.504;2023-03-23T16:33:05;13.40;99.90
44513;DHT22;30219;50.588;9.504;2023-03-23T16:35:31;13.40;99.90
44513;DHT22;30219;50.588;9.504;2023-03-23T16:37:57;13.30;99.90
44513;DHT22;30219;50.588;9.504;2023-03-23T16:40:22;13.30;99.90
44513;DHT22;30219;50.588;9.504;2023-03-23T16:42:48;13.30;99.90
44513;DHT22;30219;50.588;9.504;2023-03-23T16:45:15;13.30;99.90
44513;DHT22;30219;50.588;9.504;2023-03-23T16:47:40;13.20;99.90
44513;DHT22;30219;50.588;9.504;2023-03-23T16:50:07;13.20;99.90
44513;DHT22;30219;50.588;9.504;2023-03-23T16:52:37;13.10;99.90
44513;DHT22;30219;50.588;9.504;2023-03-23T16:55:03;13.10;99.90
44513;DHT22;30219;50.588;9.504;2023-03-23T16:57:29;13.10;99.90
44513;DHT22;30219;50.588;9.504;2023-03-23T16:59:56;13.10;99.90
44513;DHT22;30219;50.588;9.504;2023-03-23T17:02:23;13.10;99.90
44513;DHT22;30219;50.588;9.504;2023-03-23T17:04:48;13.10;99.90
44513;DHT22;30219;50.588;9.504;2023-03-23T17:07:14;13.00;99.90